Terminal Aerodrome Forecast
Issued by NWS Newport/Morehead City, NC

Home | Current Version | Previous Version | Text Only | Print | Product List | Glossary Off
Versions: 1 2 3 4 5 6 7 8 9 10 11 12 13 14

000
FTUS42 KMHX 230801 AAA
TAFEWN
TAF AMD
KEWN 230801Z 2308/2406 22005KT P6SM BKN009
     FM231200 22008KT P6SM SCT015 BKN040
     FM231500 23012G20KT P6SM BKN040
     FM240100 20011KT P6SM SCT250=

USA.gov is the U.S. government's official web portal to all federal, state and local government web resources and services.